sensor_id;sensor_type;location;lat;lon;timestamp;noise_LAeq;noise_LA_min;noise_LA_max;noise_LA01;noise_LA95
50333;Laerm;36239;48.132;-1.210;2022-07-01T00:02:24;38.43;34.31;42.09;;
50333;Laerm;36239;48.132;-1.210;2022-07-01T00:04:51;38.56;32.93;46.98;;
50333;Laerm;36239;48.132;-1.210;2022-07-01T00:07:17;38.22;33.90;46.28;;
50333;Laerm;36239;48.132;-1.210;2022-07-01T00:09:43;39.20;34.31;47.40;;
50333;Laerm;36239;48.132;-1.210;2022-07-01T00:12:09;38.20;33.44;43.77;;
50333;Laerm;36239;48.132;-1.210;2022-07-01T00:14:35;40.24;34.69;44.83;;
50333;Laerm;36239;48.132;-1.210;2022-07-01T00:17:01;38.74;32.93;44.01;;
50333;Laerm;36239;48.132;-1.210;2022-07-01T00:19:27;38.31;33.90;43.14;;
50333;Laerm;36239;48.132;-1.210;2022-07-01T00:21:53;38.06;33.44;41.30;;
50333;Laerm;36239;48.132;-1.210;2022-07-01T00:24:19;37.99;33.44;40.80;;
50333;Laerm;36239;48.132;-1.210;2022-07-01T00:26:45;38.36;33.44;41.89;;
50333;Laerm;36239;48.132;-1.210;2022-07-01T00:29:11;38.55;33.44;47.02;;
50333;Laerm;36239;48.132;-1.210;2022-07-01T00:31:37;38.00;34.31;41.82;;
50333;Laerm;36239;48.132;-1.210;2022-07-01T00:34:04;38.32;33.44;43.99;;
50333;Laerm;36239;48.132;-1.210;2022-07-01T00:36:30;40.01;34.69;44.83;;
50333;Laerm;36239;48.132;-1.210;2022-07-01T00:38:56;38.60;34.69;42.53;;
50333;Laerm;36239;48.132;-1.210;2022-07-01T00:41:22;39.29;34.31;43.63;;
50333;Laerm;36239;48.132;-1.210;2022-07-01T00:43:48;38.89;32.93;43.04;;
50333;Laerm;36239;48.132;-1.210;2022-07-01T00:46:14;38.08;33.90;41.89;;
50333;Laerm;36239;48.132;-1.210;2022-07-01T00:48:40;38.96;33.90;44.94;;
50333;Laerm;36239;48.132;-1.210;2022-07-01T00:51:07;38.89;34.31;44.45;;
50333;Laerm;36239;48.132;-1.210;2022-07-01T00:53:33;39.48;35.36;44.23;;
50333;Laerm;36239;48.132;-1.210;2022-07-01T00:55:59;40.25;35.04;49.83;;
50333;Laerm;36239;48.132;-1.210;2022-07-01T00:58:26;39.45;35.04;47.18;;
50333;Laerm;36239;48.132;-1.210;2022-07-01T01:00:54;38.85;34.31;44.31;;
50333;Laerm;36239;48.132;-1.210;2022-07-01T01:03:21;39.04;34.31;45.01;;
50333;Laerm;36239;48.132;-1.210;2022-07-01T01:05:47;40.58;35.36;49.32;;
50333;Laerm;36239;48.132;-1.210;2022-07-01T01:08:14;39.41;33.90;47.55;;
50333;Laerm;36239;48.132;-1.210;2022-07-01T01:10:41;39.46;34.69;51.50;;
50333;Laerm;36239;48.132;-1.210;2022-07-01T01:13:08;39.53;34.69;44.04;;
50333;Laerm;36239;48.132;-1.210;2022-07-01T01:15:34;39.74;35.36;44.03;;
50333;Laerm;36239;48.132;-1.210;2022-07-01T01:18:00;38.42;34.69;42.98;;
50333;Laerm;36239;48.132;-1.210;2022-07-01T01:20:32;38.83;33.44;48.48;;
50333;Laerm;36239;48.132;-1.210;2022-07-01T01:22:58;38.69;33.90;44.11;;
50333;Laerm;36239;48.132;-1.210;2022-07-01T01:25:24;38.31;33.90;42.22;;
50333;Laerm;36239;48.132;-1.210;2022-07-01T01:27:50;38.10;33.90;41.61;;
50333;Laerm;36239;48.132;-1.210;2022-07-01T01:30:16;39.14;33.90;47.34;;
50333;Laerm;36239;48.132;-1.210;2022-07-01T01:32:42;40.65;35.04;58.07;;
50333;Laerm;36239;48.132;-1.210;2022-07-01T01:35:09;38.65;34.69;41.75;;
50333;Laerm;36239;48.132;-1.210;2022-07-01T01:37:35;38.32;34.69;41.38;;
50333;Laerm;36239;48.132;-1.210;2022-07-01T01:40:02;39.04;34.69;44.19;;
50333;Laerm;36239;48.132;-1.210;2022-07-01T01:42:29;38.56;34.31;41.75;;
50333;Laerm;36239;48.132;-1.210;2022-07-01T01:44:55;39.57;35.36;45.45;;
50333;Laerm;36239;48.132;-1.210;2022-07-01T01:47:21;39.54;35.66;42.82;;
50333;Laerm;36239;48.132;-1.210;2022-07-01T01:49:47;39.90;35.04;43.94;;
50333;Laerm;36239;48.132;-1.210;2022-07-01T01:52:12;39.35;34.69;47.38;;
50333;Laerm;36239;48.132;-1.210;2022-07-01T01:54:38;40.82;36.69;48.10;;
50333;Laerm;36239;48.132;-1.210;2022-07-01T01:57:04;40.67;36.69;48.49;;
50333;Laerm;36239;48.132;-1.210;2022-07-01T01:59:31;40.59;35.36;60.30;;
50333;Laerm;36239;48.132;-1.210;2022-07-01T02:01:57;40.96;33.90;47.26;;
50333;Laerm;36239;48.132;-1.210;2022-07-01T02:04:23;40.53;35.94;49.24;;
50333;Laerm;36239;48.132;-1.210;2022-07-01T02:06:52;38.53;33.44;45.60;;
50333;Laerm;36239;48.132;-1.210;2022-07-01T02:09:18;39.23;34.31;51.47;;
50333;Laerm;36239;48.132;-1.210;2022-07-01T02:11:44;39.20;35.04;45.45;;
50333;Laerm;36239;48.132;-1.210;2022-07-01T02:14:10;41.10;35.36;48.28;;
50333;Laerm;36239;48.132;-1.210;2022-07-01T02:16:36;39.04;34.31;44.47;;
50333;Laerm;36239;48.132;-1.210;2022-07-01T02:19:02;39.73;34.31;44.07;;
50333;Laerm;36239;48.132;-1.210;2022-07-01T02:21:29;41.05;35.94;47.68;;
50333;Laerm;36239;48.132;-1.210;2022-07-01T02:23:55;39.61;34.31;45.01;;
50333;Laerm;36239;48.132;-1.210;2022-07-01T02:26:21;38.91;34.31;44.03;;
50333;Laerm;36239;48.132;-1.210;2022-07-01T02:28:47;39.29;35.36;43.68;;
50333;Laerm;36239;48.132;-1.210;2022-07-01T02:31:13;38.81;34.31;44.19;;
50333;Laerm;36239;48.132;-1.210;2022-07-01T02:33:39;39.93;36.45;43.24;;
50333;Laerm;36239;48.132;-1.210;2022-07-01T02:36:05;39.07;35.04;44.51;;
50333;Laerm;36239;48.132;-1.210;2022-07-01T02:38:31;39.32;35.66;42.35;;
50333;Laerm;36239;48.132;-1.210;2022-07-01T02:40:57;39.85;35.36;46.10;;
50333;Laerm;36239;48.132;-1.210;2022-07-01T02:43:24;40.02;35.04;45.57;;
50333;Laerm;36239;48.132;-1.210;2022-07-01T02:45:50;40.90;36.20;48.54;;
50333;Laerm;36239;48.132;-1.210;2022-07-01T02:48:16;41.30;36.69;47.28;;
50333;Laerm;36239;48.132;-1.210;2022-07-01T02:50:42;40.42;35.36;45.63;;
50333;Laerm;36239;48.132;-1.210;2022-07-01T02:53:08;39.62;34.69;43.94;;
50333;Laerm;36239;48.132;-1.210;2022-07-01T02:55:34;39.91;35.66;43.94;;
50333;Laerm;36239;48.132;-1.210;2022-07-01T02:58:00;40.76;35.04;46.07;;
50333;Laerm;36239;48.132;-1.210;2022-07-01T03:00:26;39.67;34.69;46.62;;
50333;Laerm;36239;48.132;-1.210;2022-07-01T03:02:52;39.76;35.04;44.19;;
50333;Laerm;36239;48.132;-1.210;2022-07-01T03:05:18;40.21;35.04;45.57;;
50333;Laerm;36239;48.132;-1.210;2022-07-01T03:07:44;41.83;36.45;52.39;;
50333;Laerm;36239;48.132;-1.210;2022-07-01T03:10:10;40.21;35.94;44.39;;
50333;Laerm;36239;48.132;-1.210;2022-07-01T03:12:36;41.23;36.69;49.40;;
50333;Laerm;36239;48.132;-1.210;2022-07-01T03:15:08;47.92;36.69;67.41;;
50333;Laerm;36239;48.132;-1.210;2022-07-01T03:17:36;40.49;36.69;43.72;;
50333;Laerm;36239;48.132;-1.210;2022-07-01T03:20:02;39.64;35.94;43.46;;
50333;Laerm;36239;48.132;-1.210;2022-07-01T03:22:30;39.04;35.04;45.69;;
50333;Laerm;36239;48.132;-1.210;2022-07-01T03:24:56;39.30;34.69;42.03;;
50333;Laerm;36239;48.132;-1.210;2022-07-01T03:27:23;39.97;35.94;45.14;;
50333;Laerm;36239;48.132;-1.210;2022-07-01T03:29:50;39.93;35.86;57.19;;
50333;Laerm;36239;48.132;-1.210;2022-07-01T03:32:16;42.40;36.20;54.18;;
50333;Laerm;36239;48.132;-1.210;2022-07-01T03:34:43;50.07;36.45;66.33;;
50333;Laerm;36239;48.132;-1.210;2022-07-01T03:37:10;42.20;36.45;51.73;;
50333;Laerm;36239;48.132;-1.210;2022-07-01T03:39:36;43.22;36.91;53.22;;
50333;Laerm;36239;48.132;-1.210;2022-07-01T03:42:03;42.98;36.69;53.35;;
50333;Laerm;36239;48.132;-1.210;2022-07-01T03:44:29;42.17;35.36;52.67;;
50333;Laerm;36239;48.132;-1.210;2022-07-01T03:46:55;44.69;36.20;69.66;;
50333;Laerm;36239;48.132;-1.210;2022-07-01T03:49:21;42.68;36.10;56.65;;
50333;Laerm;36239;48.132;-1.210;2022-07-01T03:51:48;41.19;36.69;51.34;;
50333;Laerm;36239;48.132;-1.210;2022-07-01T03:54:14;41.09;34.69;51.93;;
50333;Laerm;36239;48.132;-1.210;2022-07-01T03:56:59;40.25;35.94;53.98;;
50333;Laerm;36239;48.132;-1.210;2022-07-01T03:59:25;40.92;37.12;49.78;;
50333;Laerm;36239;48.132;-1.210;2022-07-01T04:01:52;41.33;37.70;45.23;;
50333;Laerm;36239;48.132;-1.210;2022-07-01T04:04:18;40.25;36.20;48.63;;
50333;Laerm;36239;48.132;-1.210;2022-07-01T04:06:45;39.98;35.94;45.54;;
50333;Laerm;36239;48.132;-1.210;2022-07-01T04:09:11;40.12;36.20;43.44;;
50333;Laerm;36239;48.132;-1.210;2022-07-01T04:11:38;40.91;36.20;49.24;;
50333;Laerm;36239;48.132;-1.210;2022-07-01T04:14:04;41.82;35.94;58.90;;
50333;Laerm;36239;48.132;-1.210;2022-07-01T04:16:30;43.17;37.52;58.62;;
50333;Laerm;36239;48.132;-1.210;2022-07-01T04:18:56;42.47;35.94;55.35;;
50333;Laerm;36239;48.132;-1.210;2022-07-01T04:21:23;42.60;36.69;54.12;;
50333;Laerm;36239;48.132;-1.210;2022-07-01T04:24:08;40.99;35.36;54.67;;
50333;Laerm;36239;48.132;-1.210;2022-07-01T04:26:34;42.89;37.88;55.43;;
50333;Laerm;36239;48.132;-1.210;2022-07-01T04:29:00;43.27;37.70;55.23;;
50333;Laerm;36239;48.132;-1.210;2022-07-01T04:31:26;42.25;38.05;46.48;;
50333;Laerm;36239;48.132;-1.210;2022-07-01T04:33:52;41.48;37.70;50.62;;
50333;Laerm;36239;48.132;-1.210;2022-07-01T04:36:18;43.31;38.05;56.63;;
50333;Laerm;36239;48.132;-1.210;2022-07-01T04:38:44;43.08;37.70;55.60;;
50333;Laerm;36239;48.132;-1.210;2022-07-01T04:41:11;45.58;38.67;57.22;;
50333;Laerm;36239;48.132;-1.210;2022-07-01T04:43:55;43.80;39.46;56.04;;
50333;Laerm;36239;48.132;-1.210;2022-07-01T04:46:21;43.76;39.21;55.15;;
50333;Laerm;36239;48.132;-1.210;2022-07-01T04:48:47;42.49;38.21;55.44;;
50333;Laerm;36239;48.132;-1.210;2022-07-01T04:51:13;43.70;38.52;56.78;;
50333;Laerm;36239;48.132;-1.210;2022-07-01T04:53:39;45.14;40.33;58.70;;
50333;Laerm;36239;48.132;-1.210;2022-07-01T04:56:05;43.03;38.67;49.14;;
50333;Laerm;36239;48.132;-1.210;2022-07-01T04:58:31;42.65;38.67;46.84;;
50333;Laerm;36239;48.132;-1.210;2022-07-01T05:00:57;44.65;38.52;59.57;;
50333;Laerm;36239;48.132;-1.210;2022-07-01T05:03:23;42.56;38.67;54.22;;
50333;Laerm;36239;48.132;-1.210;2022-07-01T05:05:49;43.60;39.08;53.90;;
50333;Laerm;36239;48.132;-1.210;2022-07-01T05:08:15;45.74;39.34;64.71;;
50333;Laerm;36239;48.132;-1.210;2022-07-01T05:10:41;42.79;38.67;52.02;;
50333;Laerm;36239;48.132;-1.210;2022-07-01T05:13:08;42.27;38.37;59.59;;
50333;Laerm;36239;48.132;-1.210;2022-07-01T05:15:34;41.74;38.52;45.63;;
50333;Laerm;36239;48.132;-1.210;2022-07-01T05:18:00;43.28;38.05;56.06;;
50333;Laerm;36239;48.132;-1.210;2022-07-01T05:20:45;41.75;38.67;44.58;;
50333;Laerm;36239;48.132;-1.210;2022-07-01T05:23:29;41.91;38.37;49.27;;
50333;Laerm;36239;48.132;-1.210;2022-07-01T05:25:55;41.40;37.52;50.45;;
50333;Laerm;36239;48.132;-1.210;2022-07-01T05:28:21;41.07;37.70;50.01;;
50333;Laerm;36239;48.132;-1.210;2022-07-01T05:30:47;44.40;38.21;58.99;;
50333;Laerm;36239;48.132;-1.210;2022-07-01T05:33:14;41.45;38.37;51.11;;
50333;Laerm;36239;48.132;-1.210;2022-07-01T05:35:40;43.48;37.12;66.22;;
50333;Laerm;36239;48.132;-1.210;2022-07-01T05:38:06;40.52;37.70;50.21;;
50333;Laerm;36239;48.132;-1.210;2022-07-01T05:40:32;41.34;38.05;46.59;;
50333;Laerm;36239;48.132;-1.210;2022-07-01T05:42:58;41.42;36.91;50.61;;
50333;Laerm;36239;48.132;-1.210;2022-07-01T05:45:24;41.70;37.88;56.76;;
50333;Laerm;36239;48.132;-1.210;2022-07-01T05:47:50;46.56;37.52;77.80;;
50333;Laerm;36239;48.132;-1.210;2022-07-01T05:50:16;40.61;37.12;51.82;;
50333;Laerm;36239;48.132;-1.210;2022-07-01T05:52:42;45.01;36.45;64.32;;
50333;Laerm;36239;48.132;-1.210;2022-07-01T05:55:11;43.58;35.94;57.99;;
50333;Laerm;36239;48.132;-1.210;2022-07-01T05:57:37;43.57;36.77;63.14;;
50333;Laerm;36239;48.132;-1.210;2022-07-01T06:00:03;45.72;36.91;60.14;;
50333;Laerm;36239;48.132;-1.210;2022-07-01T06:02:30;39.96;36.20;54.50;;
50333;Laerm;36239;48.132;-1.210;2022-07-01T06:04:56;40.78;36.45;48.02;;
50333;Laerm;36239;48.132;-1.210;2022-07-01T06:07:22;42.32;35.59;66.17;;
50333;Laerm;36239;48.132;-1.210;2022-07-01T06:09:48;42.57;37.52;59.45;;
50333;Laerm;36239;48.132;-1.210;2022-07-01T06:12:14;43.07;36.45;58.67;;
50333;Laerm;36239;48.132;-1.210;2022-07-01T06:14:40;41.44;36.20;51.74;;
50333;Laerm;36239;48.132;-1.210;2022-07-01T06:17:06;43.04;35.36;58.17;;
50333;Laerm;36239;48.132;-1.210;2022-07-01T06:19:33;43.36;37.32;57.80;;
50333;Laerm;36239;48.132;-1.210;2022-07-01T06:21:59;45.64;35.66;59.15;;
50333;Laerm;36239;48.132;-1.210;2022-07-01T06:24:25;42.54;37.12;60.42;;
50333;Laerm;36239;48.132;-1.210;2022-07-01T06:26:52;44.81;36.45;66.56;;
50333;Laerm;36239;48.132;-1.210;2022-07-01T06:29:18;44.30;38.21;58.00;;
50333;Laerm;36239;48.132;-1.210;2022-07-01T06:31:44;43.44;37.32;62.12;;
50333;Laerm;36239;48.132;-1.210;2022-07-01T06:34:10;48.74;37.52;69.83;;
50333;Laerm;36239;48.132;-1.210;2022-07-01T06:36:36;41.71;36.69;54.63;;
50333;Laerm;36239;48.132;-1.210;2022-07-01T06:39:02;43.93;38.21;56.80;;
50333;Laerm;36239;48.132;-1.210;2022-07-01T06:41:28;47.16;37.12;62.79;;
50333;Laerm;36239;48.132;-1.210;2022-07-01T06:46:20;41.72;36.69;58.41;;
50333;Laerm;36239;48.132;-1.210;2022-07-01T06:48:46;41.72;36.20;53.57;;
50333;Laerm;36239;48.132;-1.210;2022-07-01T06:51:12;41.95;35.36;53.91;;
50333;Laerm;36239;48.132;-1.210;2022-07-01T06:53:38;41.67;35.04;47.00;;
50333;Laerm;36239;48.132;-1.210;2022-07-01T06:56:04;42.06;38.02;50.46;;
50333;Laerm;36239;48.132;-1.210;2022-07-01T06:58:31;39.59;34.31;48.13;;
50333;Laerm;36239;48.132;-1.210;2022-07-01T07:00:57;42.22;34.69;58.55;;
50333;Laerm;36239;48.132;-1.210;2022-07-01T07:03:23;40.17;34.31;54.02;;
50333;Laerm;36239;48.132;-1.210;2022-07-01T07:05:49;40.95;34.69;55.19;;
50333;Laerm;36239;48.132;-1.210;2022-07-01T07:08:15;39.09;34.31;56.64;;
50333;Laerm;36239;48.132;-1.210;2022-07-01T07:10:41;39.60;35.66;49.47;;
50333;Laerm;36239;48.132;-1.210;2022-07-01T07:13:07;41.89;35.94;58.18;;
50333;Laerm;36239;48.132;-1.210;2022-07-01T07:15:33;42.85;34.31;58.75;;
50333;Laerm;36239;48.132;-1.210;2022-07-01T07:17:59;40.39;33.90;56.19;;
50333;Laerm;36239;48.132;-1.210;2022-07-01T07:20:25;39.37;34.31;54.74;;
50333;Laerm;36239;48.132;-1.210;2022-07-01T07:22:52;39.90;34.69;51.97;;
50333;Laerm;36239;48.132;-1.210;2022-07-01T07:25:18;38.83;35.04;51.23;;
50333;Laerm;36239;48.132;-1.210;2022-07-01T07:27:44;48.04;36.20;72.35;;
50333;Laerm;36239;48.132;-1.210;2022-07-01T07:30:13;47.83;34.69;66.18;;
50333;Laerm;36239;48.132;-1.210;2022-07-01T07:32:39;39.77;34.31;45.72;;
50333;Laerm;36239;48.132;-1.210;2022-07-01T07:35:06;40.05;35.04;45.04;;
50333;Laerm;36239;48.132;-1.210;2022-07-01T07:37:32;40.18;34.69;63.53;;
50333;Laerm;36239;48.132;-1.210;2022-07-01T07:39:59;39.38;33.90;51.47;;
50333;Laerm;36239;48.132;-1.210;2022-07-01T07:42:25;39.24;34.31;51.94;;
50333;Laerm;36239;48.132;-1.210;2022-07-01T07:44:51;38.96;35.04;45.66;;
50333;Laerm;36239;48.132;-1.210;2022-07-01T07:47:17;39.84;35.66;53.10;;
50333;Laerm;36239;48.132;-1.210;2022-07-01T07:49:43;43.19;34.69;62.68;;
50333;Laerm;36239;48.132;-1.210;2022-07-01T07:52:09;40.56;33.90;50.77;;
50333;Laerm;36239;48.132;-1.210;2022-07-01T07:54:35;41.77;33.90;56.28;;
50333;Laerm;36239;48.132;-1.210;2022-07-01T07:57:01;39.76;35.01;50.47;;
50333;Laerm;36239;48.132;-1.210;2022-07-01T07:59:27;40.31;34.31;53.40;;
50333;Laerm;36239;48.132;-1.210;2022-07-01T08:01:53;38.84;35.04;47.34;;
50333;Laerm;36239;48.132;-1.210;2022-07-01T08:04:20;39.57;34.69;51.98;;
50333;Laerm;36239;48.132;-1.210;2022-07-01T08:06:46;39.94;35.04;53.61;;
50333;Laerm;36239;48.132;-1.210;2022-07-01T08:09:12;40.75;35.04;58.28;;
50333;Laerm;36239;48.132;-1.210;2022-07-01T08:11:38;40.59;35.04;53.56;;
50333;Laerm;36239;48.132;-1.210;2022-07-01T08:14:04;47.11;35.36;65.52;;
50333;Laerm;36239;48.132;-1.210;2022-07-01T08:16:30;43.95;36.45;60.38;;
50333;Laerm;36239;48.132;-1.210;2022-07-01T08:18:57;43.70;37.12;59.25;;
50333;Laerm;36239;48.132;-1.210;2022-07-01T08:21:23;41.50;35.36;59.40;;
50333;Laerm;36239;48.132;-1.210;2022-07-01T08:23:49;40.28;35.36;55.41;;
50333;Laerm;36239;48.132;-1.210;2022-07-01T08:26:15;42.43;35.94;58.29;;
50333;Laerm;36239;48.132;-1.210;2022-07-01T08:28:42;46.29;37.12;64.83;;
50333;Laerm;36239;48.132;-1.210;2022-07-01T08:31:08;48.46;37.70;67.80;;
50333;Laerm;36239;48.132;-1.210;2022-07-01T08:33:34;55.75;38.21;74.42;;
50333;Laerm;36239;48.132;-1.210;2022-07-01T08:36:04;50.12;39.81;65.47;;
50333;Laerm;36239;48.132;-1.210;2022-07-01T08:38:30;50.38;40.23;66.56;;
50333;Laerm;36239;48.132;-1.210;2022-07-01T08:40:56;53.14;41.33;66.69;;
50333;Laerm;36239;48.132;-1.210;2022-07-01T08:43:22;50.44;39.81;70.80;;
50333;Laerm;36239;48.132;-1.210;2022-07-01T08:45:48;47.73;39.92;65.39;;
50333;Laerm;36239;48.132;-1.210;2022-07-01T08:48:16;49.76;41.68;64.88;;
50333;Laerm;36239;48.132;-1.210;2022-07-01T08:50:42;48.49;39.92;61.82;;
50333;Laerm;36239;48.132;-1.210;2022-07-01T08:53:09;45.32;37.52;59.78;;
50333;Laerm;36239;48.132;-1.210;2022-07-01T08:55:35;43.52;37.52;64.55;;
50333;Laerm;36239;48.132;-1.210;2022-07-01T08:58:20;44.05;38.37;59.29;;
50333;Laerm;36239;48.132;-1.210;2022-07-01T09:00:46;48.47;38.67;72.89;;
50333;Laerm;36239;48.132;-1.210;2022-07-01T09:03:13;41.99;37.70;58.72;;
50333;Laerm;36239;48.132;-1.210;2022-07-01T09:05:39;44.31;37.52;72.35;;
50333;Laerm;36239;48.132;-1.210;2022-07-01T09:08:13;48.30;36.91;68.86;;
50333;Laerm;36239;48.132;-1.210;2022-07-01T09:10:39;44.08;38.05;55.86;;
50333;Laerm;36239;48.132;-1.210;2022-07-01T09:13:10;46.14;38.21;63.44;;
50333;Laerm;36239;48.132;-1.210;2022-07-01T09:15:37;44.82;37.12;69.46;;
50333;Laerm;36239;48.132;-1.210;2022-07-01T09:18:05;42.43;36.45;55.83;;
50333;Laerm;36239;48.132;-1.210;2022-07-01T09:22:58;47.67;37.12;67.49;;
50333;Laerm;36239;48.132;-1.210;2022-07-01T09:25:28;50.83;38.37;65.88;;
50333;Laerm;36239;48.132;-1.210;2022-07-01T09:30:29;47.10;37.32;73.24;;
50333;Laerm;36239;48.132;-1.210;2022-07-01T09:33:05;50.28;35.36;75.31;;
50333;Laerm;36239;48.132;-1.210;2022-07-01T09:35:31;50.13;36.45;80.06;;
50333;Laerm;36239;48.132;-1.210;2022-07-01T09:38:01;39.30;34.69;57.11;;
50333;Laerm;36239;48.132;-1.210;2022-07-01T09:40:44;39.61;35.94;49.16;;
50333;Laerm;36239;48.132;-1.210;2022-07-01T09:43:21;39.07;33.44;53.73;;
50333;Laerm;36239;48.132;-1.210;2022-07-01T09:48:16;39.88;35.66;55.26;;
50333;Laerm;36239;48.132;-1.210;2022-07-01T09:50:42;39.53;35.04;49.07;;
50333;Laerm;36239;48.132;-1.210;2022-07-01T09:53:09;39.67;34.31;43.77;;
50333;Laerm;36239;48.132;-1.210;2022-07-01T09:55:36;41.24;34.69;63.90;;
50333;Laerm;36239;48.132;-1.210;2022-07-01T09:58:02;40.99;36.45;54.53;;
50333;Laerm;36239;48.132;-1.210;2022-07-01T10:00:31;46.78;35.36;67.81;;
50333;Laerm;36239;48.132;-1.210;2022-07-01T10:03:00;41.55;36.20;54.78;;
50333;Laerm;36239;48.132;-1.210;2022-07-01T10:05:26;45.96;37.70;64.36;;
50333;Laerm;36239;48.132;-1.210;2022-07-01T10:10:44;44.24;38.21;63.52;;
50333;Laerm;36239;48.132;-1.210;2022-07-01T10:13:15;42.99;37.70;56.79;;
50333;Laerm;36239;48.132;-1.210;2022-07-01T10:15:42;43.00;37.88;61.59;;
50333;Laerm;36239;48.132;-1.210;2022-07-01T10:18:19;43.60;38.05;57.84;;
50333;Laerm;36239;48.132;-1.210;2022-07-01T10:20:46;43.76;38.05;59.42;;
50333;Laerm;36239;48.132;-1.210;2022-07-01T10:23:12;44.05;38.05;67.45;;
50333;Laerm;36239;48.132;-1.210;2022-07-01T10:25:45;45.61;37.52;65.89;;
50333;Laerm;36239;48.132;-1.210;2022-07-01T10:33:26;40.16;35.94;52.86;;
50333;Laerm;36239;48.132;-1.210;2022-07-01T10:35:53;42.37;37.32;62.14;;
50333;Laerm;36239;48.132;-1.210;2022-07-01T10:38:19;41.20;36.45;58.79;;
50333;Laerm;36239;48.132;-1.210;2022-07-01T10:40:45;43.58;36.69;65.29;;
50333;Laerm;36239;48.132;-1.210;2022-07-01T10:43:15;41.00;36.69;52.24;;
50333;Laerm;36239;48.132;-1.210;2022-07-01T10:45:42;45.47;36.91;72.86;;
50333;Laerm;36239;48.132;-1.210;2022-07-01T10:48:29;47.39;37.32;68.09;;
50333;Laerm;36239;48.132;-1.210;2022-07-01T10:50:56;42.01;36.91;54.26;;
50333;Laerm;36239;48.132;-1.210;2022-07-01T10:53:22;42.80;37.12;54.78;;
50333;Laerm;36239;48.132;-1.210;2022-07-01T10:55:52;43.16;37.12;60.07;;
50333;Laerm;36239;48.132;-1.210;2022-07-01T10:58:18;43.99;36.69;62.89;;
50333;Laerm;36239;48.132;-1.210;2022-07-01T11:01:00;41.68;36.20;57.70;;
50333;Laerm;36239;48.132;-1.210;2022-07-01T11:03:26;47.11;35.94;69.23;;
50333;Laerm;36239;48.132;-1.210;2022-07-01T11:05:53;47.77;36.20;68.96;;
50333;Laerm;36239;48.132;-1.210;2022-07-01T11:08:19;43.28;36.45;59.23;;
50333;Laerm;36239;48.132;-1.210;2022-07-01T11:10:49;45.62;38.37;68.16;;
50333;Laerm;36239;48.132;-1.210;2022-07-01T11:13:15;43.69;37.32;69.34;;
50333;Laerm;36239;48.132;-1.210;2022-07-01T11:15:44;43.59;39.08;53.38;;
50333;Laerm;36239;48.132;-1.210;2022-07-01T11:18:10;46.98;37.88;64.02;;
50333;Laerm;36239;48.132;-1.210;2022-07-01T11:20:36;46.81;37.70;67.59;;
50333;Laerm;36239;48.132;-1.210;2022-07-01T11:23:02;48.34;39.70;64.29;;
50333;Laerm;36239;48.132;-1.210;2022-07-01T11:25:29;48.58;39.58;69.49;;
50333;Laerm;36239;48.132;-1.210;2022-07-01T11:27:55;49.32;40.23;67.82;;
50333;Laerm;36239;48.132;-1.210;2022-07-01T11:30:22;54.76;41.61;84.75;;
50333;Laerm;36239;48.132;-1.210;2022-07-01T11:32:49;47.15;39.21;68.61;;
50333;Laerm;36239;48.132;-1.210;2022-07-01T11:35:20;45.98;37.32;65.30;;
50333;Laerm;36239;48.132;-1.210;2022-07-01T11:38:05;40.88;36.20;52.39;;
50333;Laerm;36239;48.132;-1.210;2022-07-01T11:40:50;44.96;35.36;67.32;;
50333;Laerm;36239;48.132;-1.210;2022-07-01T11:43:17;40.70;36.69;55.14;;
50333;Laerm;36239;48.132;-1.210;2022-07-01T11:45:43;42.94;36.20;65.83;;
50333;Laerm;36239;48.132;-1.210;2022-07-01T11:48:09;43.80;36.45;70.63;;
50333;Laerm;36239;48.132;-1.210;2022-07-01T11:50:35;44.33;36.45;66.92;;
50333;Laerm;36239;48.132;-1.210;2022-07-01T11:53:01;41.95;37.12;67.18;;
50333;Laerm;36239;48.132;-1.210;2022-07-01T11:55:28;45.67;37.35;71.46;;
50333;Laerm;36239;48.132;-1.210;2022-07-01T11:57:54;39.49;35.04;55.37;;
50333;Laerm;36239;48.132;-1.210;2022-07-01T12:00:22;39.87;35.94;47.34;;
50333;Laerm;36239;48.132;-1.210;2022-07-01T12:02:51;39.80;34.31;63.03;;
50333;Laerm;36239;48.132;-1.210;2022-07-01T12:05:17;39.38;35.04;52.89;;
50333;Laerm;36239;48.132;-1.210;2022-07-01T12:07:44;40.22;36.45;43.81;;
50333;Laerm;36239;48.132;-1.210;2022-07-01T12:10:10;51.14;35.94;73.27;;
50333;Laerm;36239;48.132;-1.210;2022-07-01T12:12:36;49.32;35.66;71.79;;
50333;Laerm;36239;48.132;-1.210;2022-07-01T12:15:02;42.31;36.91;63.84;;
50333;Laerm;36239;48.132;-1.210;2022-07-01T12:17:29;42.76;37.52;71.07;;
50333;Laerm;36239;48.132;-1.210;2022-07-01T12:19:55;41.22;37.52;45.60;;
50333;Laerm;36239;48.132;-1.210;2022-07-01T12:22:25;46.47;37.70;74.12;;
50333;Laerm;36239;48.132;-1.210;2022-07-01T12:24:52;41.95;37.88;58.10;;
50333;Laerm;36239;48.132;-1.210;2022-07-01T12:27:21;42.61;36.91;64.65;;
50333;Laerm;36239;48.132;-1.210;2022-07-01T12:32:26;41.49;36.45;71.51;;
50333;Laerm;36239;48.132;-1.210;2022-07-01T12:34:57;40.12;35.36;52.03;;
50333;Laerm;36239;48.132;-1.210;2022-07-01T12:39:58;48.40;35.94;76.86;;
50333;Laerm;36239;48.132;-1.210;2022-07-01T12:44:57;43.24;34.69;59.83;;
50333;Laerm;36239;48.132;-1.210;2022-07-01T12:47:27;39.37;35.66;48.51;;
50333;Laerm;36239;48.132;-1.210;2022-07-01T12:52:35;44.89;35.36;63.48;;
50333;Laerm;36239;48.132;-1.210;2022-07-01T12:57:40;40.19;35.94;53.15;;
50333;Laerm;36239;48.132;-1.210;2022-07-01T13:00:07;43.34;35.36;65.22;;
50333;Laerm;36239;48.132;-1.210;2022-07-01T13:02:33;43.56;36.91;70.43;;
50333;Laerm;36239;48.132;-1.210;2022-07-01T13:05:00;42.32;37.52;66.91;;
50333;Laerm;36239;48.132;-1.210;2022-07-01T13:07:25;41.54;37.32;57.92;;
50333;Laerm;36239;48.132;-1.210;2022-07-01T13:09:51;42.35;37.70;59.75;;
50333;Laerm;36239;48.132;-1.210;2022-07-01T13:12:17;44.60;37.52;68.25;;
50333;Laerm;36239;48.132;-1.210;2022-07-01T13:14:44;42.20;37.12;56.34;;
50333;Laerm;36239;48.132;-1.210;2022-07-01T13:17:10;43.33;38.05;62.43;;
50333;Laerm;36239;48.132;-1.210;2022-07-01T13:19:36;43.06;37.35;57.18;;
50333;Laerm;36239;48.132;-1.210;2022-07-01T13:22:02;47.76;38.05;72.17;;
50333;Laerm;36239;48.132;-1.210;2022-07-01T13:24:28;47.58;39.34;64.56;;
50333;Laerm;36239;48.132;-1.210;2022-07-01T13:26:54;48.17;39.92;73.70;;
50333;Laerm;36239;48.132;-1.210;2022-07-01T13:29:20;52.38;39.81;76.22;;
50333;Laerm;36239;48.132;-1.210;2022-07-01T13:31:47;48.56;40.53;62.35;;
50333;Laerm;36239;48.132;-1.210;2022-07-01T13:34:13;49.95;40.80;62.62;;
50333;Laerm;36239;48.132;-1.210;2022-07-01T13:36:38;51.80;42.53;65.45;;
50333;Laerm;36239;48.132;-1.210;2022-07-01T13:39:04;49.73;41.14;66.59;;
50333;Laerm;36239;48.132;-1.210;2022-07-01T13:41:31;50.49;40.62;65.96;;
50333;Laerm;36239;48.132;-1.210;2022-07-01T13:43:57;51.11;40.62;66.23;;
50333;Laerm;36239;48.132;-1.210;2022-07-01T13:46:23;50.11;41.11;67.37;;
50333;Laerm;36239;48.132;-1.210;2022-07-01T13:48:49;50.14;40.98;69.52;;
50333;Laerm;36239;48.132;-1.210;2022-07-01T13:51:15;50.78;41.53;72.23;;
50333;Laerm;36239;48.132;-1.210;2022-07-01T13:53:41;61.55;40.98;93.35;;
50333;Laerm;36239;48.132;-1.210;2022-07-01T13:56:07;45.67;40.43;68.32;;
50333;Laerm;36239;48.132;-1.210;2022-07-01T13:58:33;45.26;39.81;67.10;;
50333;Laerm;36239;48.132;-1.210;2022-07-01T14:00:59;43.59;37.12;56.65;;
50333;Laerm;36239;48.132;-1.210;2022-07-01T14:03:25;44.39;38.05;64.44;;